Time;durP1;ratioP1;P1;durP2;ratioP2;P2;SDS_P1;SDS_P2;PMS_P1;PMS_P2;Temp;Humidity;BMP_temperature;BMP_pressure;BME280_temperature;BME280_humidity;BME280_pressure;Samples;Min_cycle;Max_cycle;Signal;HPM_P1;HPM_P2
2022/01/19 00:01:07;;;;;;;3.17;2.00;;;;;;;2.38;83.88;97746.00;5058428;28;20216;-71
2022/01/19 00:03:34;;;;;;;3.47;1.97;;;;;;;2.34;84.20;97736.72;5057401;28;20207;-70
2022/01/19 00:06:01;;;;;;;2.73;1.97;;;;;;;2.37;84.39;97720.94;5057212;28;20228;-70
2022/01/19 00:08:28;;;;;;;5.27;1.90;;;;;;;2.38;83.84;97712.19;5058316;28;20197;-70
2022/01/19 00:10:55;;;;;;;1.93;1.83;;;;;;;2.31;84.74;97698.72;5057281;28;20627;-70
2022/01/19 00:13:23;;;;;;;1.90;1.73;;;;;;;2.42;85.20;97691.94;5057532;28;20208;-70
2022/01/19 00:15:50;;;;;;;12.33;2.93;;;;;;;2.35;85.05;97687.22;5058439;28;20574;-71
2022/01/19 00:18:18;;;;;;;2.10;1.43;;;;;;;2.52;84.67;97674.84;5058364;28;20221;-70
2022/01/19 00:20:45;;;;;;;4.33;2.63;;;;;;;2.34;84.84;97680.31;5057021;28;20240;-70
2022/01/19 00:23:15;;;;;;;4.30;2.53;;;;;;;2.27;85.14;97689.44;5057360;28;20219;-71
2022/01/19 00:25:41;;;;;;;5.90;2.07;;;;;;;2.25;85.22;97685.25;5055138;28;20200;-70
2022/01/19 00:28:08;;;;;;;7.33;2.50;;;;;;;2.17;85.08;97682.28;5058038;28;20201;-70
2022/01/19 00:30:36;;;;;;;2.27;2.03;;;;;;;2.40;85.23;97682.56;5057530;28;20208;-70
2022/01/19 00:33:03;;;;;;;3.57;1.70;;;;;;;2.36;84.86;97690.66;5056962;28;20204;-71
2022/01/19 00:35:29;;;;;;;2.07;1.57;;;;;;;2.10;85.63;97691.38;5057652;28;20201;-70
2022/01/19 00:37:56;;;;;;;12.13;2.40;;;;;;;2.20;84.71;97700.28;5057327;28;20224;-71
2022/01/19 00:40:22;;;;;;;2.63;1.93;;;;;;;2.11;84.33;97687.84;5057308;28;20212;-70
2022/01/19 00:42:51;;;;;;;4.00;1.83;;;;;;;2.22;84.46;97695.84;5056993;28;20254;-70
2022/01/19 00:45:18;;;;;;;5.00;2.23;;;;;;;2.22;84.85;97701.06;5056725;28;20835;-71
2022/01/19 00:47:46;;;;;;;7.47;2.13;;;;;;;2.22;85.70;97695.84;5057159;28;20224;-71
2022/01/19 00:50:16;;;;;;;6.83;2.73;;;;;;;2.17;85.89;97693.50;5067639;28;20204;-69
2022/01/19 00:52:42;;;;;;;4.40;2.20;;;;;;;2.19;84.61;97677.81;5069869;28;20557;-70
2022/01/19 00:55:12;;;;;;;2.37;1.53;;;;;;;2.26;84.97;97671.34;5067221;28;20207;-70
2022/01/19 00:57:39;;;;;;;1.43;1.33;;;;;;;1.95;85.22;97676.69;5071068;28;20220;-70
2022/01/19 01:00:11;;;;;;;5.90;2.23;;;;;;;1.94;85.88;97680.22;5067457;28;20204;-70
2022/01/19 01:02:38;;;;;;;2.43;2.20;;;;;;;1.89;86.16;97677.88;5067317;28;20635;-69
2022/01/19 01:05:06;;;;;;;5.03;2.13;;;;;;;2.15;85.79;97668.53;5069348;28;20208;-70
2022/01/19 01:07:35;;;;;;;20.57;2.40;;;;;;;2.09;83.31;97668.91;5068143;28;20220;-70
2022/01/19 01:10:01;;;;;;;2.20;1.60;;;;;;;1.95;82.86;97671.50;5067973;28;20206;-70
2022/01/19 01:12:42;;;;;;;4.03;1.90;;;;;;;1.87;82.71;97664.16;5066619;28;20226;-69
2022/01/19 01:18:21;;;;;;;3.13;1.80;;;;;;;1.91;83.47;97665.63;4984689;28;20380;-69
2022/01/19 01:20:52;;;;;;;6.93;1.87;;;;;;;1.99;82.68;97653.00;5055629;28;20223;-70
2022/01/19 01:23:20;;;;;;;21.87;1.57;;;;;;;1.84;83.23;97634.88;5067224;28;20197;-70
2022/01/19 01:25:47;;;;;;;2.17;1.77;;;;;;;1.64;83.36;97627.41;5066347;28;20200;-70
2022/01/19 01:28:14;;;;;;;3.80;2.00;;;;;;;1.50;83.58;97632.59;5069206;28;20199;-70
2022/01/19 01:30:42;;;;;;;2.00;1.30;;;;;;;1.37;83.89;97623.81;5067955;28;20244;-69
2022/01/19 01:33:08;;;;;;;3.30;1.93;;;;;;;1.22;84.82;97622.13;5067146;28;20223;-69
2022/01/19 01:35:35;;;;;;;14.63;2.83;;;;;;;1.06;85.21;97630.88;5068195;28;20220;-70
2022/01/19 01:38:03;;;;;;;2.20;1.43;;;;;;;1.36;84.99;97635.16;5067020;28;20233;-70
2022/01/19 01:40:33;;;;;;;2.97;1.87;;;;;;;1.40;84.46;97641.84;5066692;28;20212;-70
2022/01/19 01:43:00;;;;;;;2.40;1.83;;;;;;;1.37;81.91;97654.16;5067449;28;20202;-70
2022/01/19 01:45:28;;;;;;;1.70;1.33;;;;;;;1.35;81.75;97659.44;5066266;28;20656;-70
2022/01/19 01:48:07;;;;;;;1.97;1.43;;;;;;;1.19;83.30;97653.44;5067297;28;20222;-69
2022/01/19 01:53:29;;;;;;;2.97;1.47;;;;;;;1.09;84.64;97651.44;5065075;28;20250;-69
2022/01/19 01:55:58;;;;;;;2.80;2.03;;;;;;;0.89;84.85;97653.47;5067768;28;20196;-70
2022/01/19 01:58:25;;;;;;;1.67;1.13;;;;;;;0.77;85.08;97643.78;5067556;28;20220;-69
2022/01/19 02:00:53;;;;;;;2.00;1.77;;;;;;;1.07;83.17;97642.06;5067924;28;20231;-70
2022/01/19 02:03:19;;;;;;;1.90;1.60;;;;;;;1.07;83.30;97636.88;5068831;28;20585;-70
2022/01/19 02:06:06;;;;;;;3.07;1.67;;;;;;;1.17;82.63;97630.25;5066682;28;20240;-69
2022/01/19 02:08:42;;;;;;;1.43;1.33;;;;;;;1.01;83.60;97621.69;5067034;28;20488;-70
2022/01/19 02:16:45;;;;;;;2.80;1.43;;;;;;;0.73;82.24;97606.78;5065948;28;20227;-70
2022/01/19 02:22:00;;;;;;;16.50;2.03;;;;;;;0.91;82.70;97591.97;5067238;28;20239;-70
2022/01/19 02:24:30;;;;;;;1.10;1.03;;;;;;;1.00;81.65;97594.03;5066748;28;20251;-70
2022/01/19 02:27:05;;;;;;;1.13;1.07;;;;;;;0.66;82.96;97592.50;5067549;28;20254;-69
2022/01/19 02:40:33;;;;;;;3.87;2.13;;;;;;;0.90;84.09;97574.72;5070459;28;20211;-70
2022/01/19 02:43:07;;;;;;;3.13;2.17;;;;;;;0.85;84.33;97579.31;5072210;28;20236;-70
2022/01/19 02:51:07;;;;;;;1.30;1.23;;;;;;;1.09;81.37;97578.78;5074328;28;20267;-70
2022/01/19 02:53:36;;;;;;;3.00;1.50;;;;;;;1.24;82.67;97570.94;5071563;28;20216;-70
2022/01/19 02:56:08;;;;;;;0.47;0.47;;;;;;;1.01;83.27;97575.78;5070817;28;20674;-70
2022/01/19 02:58:39;;;;;;;12.37;2.33;;;;;;;1.11;83.20;97576.09;5070547;28;20233;-70
2022/01/19 03:09:16;;;;;;;1.07;0.83;;;;;;;1.38;85.38;97555.41;5072106;28;20201;-69
2022/01/19 03:11:42;;;;;;;1.00;1.00;;;;;;;1.32;85.58;97550.59;5070724;28;20239;-69
2022/01/19 03:14:08;;;;;;;2.03;1.50;;;;;;;1.47;85.17;97544.47;5071637;28;20207;-69
2022/01/19 03:16:35;;;;;;;1.83;1.10;;;;;;;1.58;85.00;97546.41;5070066;28;20235;-70
2022/01/19 03:19:02;;;;;;;4.83;2.27;;;;;;;1.58;85.34;97541.22;5072500;28;20225;-69
2022/01/19 03:21:28;;;;;;;2.07;1.17;;;;;;;1.67;86.03;97541.53;5068104;28;20220;-69
2022/01/19 03:23:54;;;;;;;1.43;1.33;;;;;;;1.63;86.43;97532.25;5069908;28;20202;-70
2022/01/19 03:26:23;;;;;;;1.27;1.17;;;;;;;1.89;86.31;97529.72;5070182;28;20220;-69
2022/01/19 03:28:49;;;;;;;5.80;1.57;;;;;;;1.55;87.24;97524.06;5069744;28;20205;-70
2022/01/19 03:31:15;;;;;;;3.97;1.87;;;;;;;1.36;88.42;97525.25;5070999;28;20204;-70
2022/01/19 03:33:43;;;;;;;3.63;2.30;;;;;;;1.38;88.66;97526.00;5070364;28;20215;-70
2022/01/19 03:36:10;;;;;;;2.20;1.60;;;;;;;1.46;88.71;97516.81;5072907;28;20308;-70
2022/01/19 03:38:36;;;;;;;1.37;1.23;;;;;;;1.68;88.05;97519.81;5074256;28;20250;-69
2022/01/19 03:41:03;;;;;;;2.87;1.50;;;;;;;1.52;88.91;97519.06;5071361;28;20201;-69
2022/01/19 03:43:31;;;;;;;5.00;2.00;;;;;;;1.88;87.63;97517.69;5069351;28;20657;-70
2022/01/19 03:45:58;;;;;;;1.63;1.33;;;;;;;1.71;87.60;97519.63;5069707;28;20208;-70
2022/01/19 03:48:37;;;;;;;12.60;1.70;;;;;;;1.96;87.19;97524.97;5070256;28;20209;-70
2022/01/19 03:51:05;;;;;;;1.10;0.90;;;;;;;1.77;88.27;97515.81;5073693;28;20200;-69
2022/01/19 03:53:32;;;;;;;2.60;1.93;;;;;;;1.99;87.75;97501.44;5069031;28;20683;-69
2022/01/19 03:55:58;;;;;;;3.83;1.60;;;;;;;1.99;87.12;97499.66;5070193;28;20212;-69
2022/01/19 03:58:25;;;;;;;2.13;1.50;;;;;;;1.74;88.07;97501.25;5069748;28;20205;-70
2022/01/19 04:00:56;;;;;;;1.20;1.10;;;;;;;1.83;88.82;97496.34;5071175;28;20204;-69
2022/01/19 04:03:27;;;;;;;2.10;1.60;;;;;;;1.55;89.79;97502.47;5068110;28;20217;-70
2022/01/19 04:05:59;;;;;;;2.30;1.80;;;;;;;1.74;89.65;97485.66;5069758;28;20231;-69
2022/01/19 04:08:26;;;;;;;1.50;1.40;;;;;;;1.83;89.63;97498.94;5069833;28;20210;-70
2022/01/19 04:10:53;;;;;;;4.53;1.30;;;;;;;2.05;88.71;97490.63;5070026;28;20880;-70
2022/01/19 04:13:30;;;;;;;3.23;2.23;;;;;;;2.21;87.81;97486.16;5069417;28;20201;-70
2022/01/19 04:15:59;;;;;;;10.70;2.47;;;;;;;2.17;88.72;97482.09;5070374;28;20253;-70
2022/01/19 04:18:26;;;;;;;2.63;1.87;;;;;;;2.23;88.64;97476.47;5072026;28;20200;-70
2022/01/19 04:20:53;;;;;;;2.63;1.60;;;;;;;2.31;88.03;97469.88;5070633;28;20206;-70
2022/01/19 04:23:22;;;;;;;4.10;1.97;;;;;;;2.35;88.33;97473.13;5070487;28;20207;-70
2022/01/19 04:25:49;;;;;;;1.63;1.50;;;;;;;2.44;87.80;97457.75;5067996;28;20681;-70
2022/01/19 04:28:15;;;;;;;4.37;2.10;;;;;;;2.02;88.69;97457.84;5069266;28;20201;-69
2022/01/19 04:30:42;;;;;;;4.73;1.83;;;;;;;2.27;88.57;97459.78;5069379;28;20199;-70
2022/01/19 04:33:13;;;;;;;8.10;2.90;;;;;;;2.53;87.67;97452.81;5071627;28;20202;-70
2022/01/19 04:35:47;;;;;;;3.47;2.17;;;;;;;2.45;87.84;97460.25;5072862;28;20197;-70
2022/01/19 05:01:34;;;;;;;8.53;2.67;;;;;;;2.69;86.87;97419.63;5026427;28;20581;-70
2022/01/19 05:03:19;;;;;;;4.40;2.90;;;;;;;2.77;86.96;97419.94;5068969;28;20668;-69
2022/01/19 05:05:54;;;;;;;3.27;2.00;;;;;;;2.77;87.16;97414.75;5066598;28;20298;-69
2022/01/19 05:08:39;;;;;;;4.20;2.17;;;;;;;2.52;87.52;97419.91;5068464;28;20199;-70
2022/01/19 05:13:53;;;;;;;2.00;1.40;;;;;;;2.89;85.88;97419.16;5066131;28;20290;-70
2022/01/19 05:16:20;;;;;;;5.17;3.50;;;;;;;2.83;86.12;97411.75;5066588;28;20231;-69
2022/01/19 05:18:47;;;;;;;3.40;1.60;;;;;;;3.01;86.17;97413.13;5065553;28;20210;-70
2022/01/19 05:21:16;;;;;;;5.70;2.70;;;;;;;3.02;86.87;97409.59;5066160;28;20210;-69
2022/01/19 05:23:42;;;;;;;7.10;3.47;;;;;;;2.99;86.38;97409.75;5065360;28;20208;-70
2022/01/19 05:26:09;;;;;;;2.53;1.90;;;;;;;2.98;85.70;97405.53;5066417;28;20236;-70
2022/01/19 05:28:35;;;;;;;2.30;2.10;;;;;;;2.99;85.86;97414.97;5065652;28;20211;-70
2022/01/19 05:31:02;;;;;;;3.37;2.17;;;;;;;2.98;86.13;97408.13;5066017;28;20207;-69
2022/01/19 05:33:28;;;;;;;5.77;3.03;;;;;;;2.98;86.23;97407.28;5065734;28;20207;-69
2022/01/19 05:35:55;;;;;;;5.03;2.90;;;;;;;3.05;86.28;97398.94;5065215;28;20671;-70
2022/01/19 05:38:23;;;;;;;14.60;4.60;;;;;;;3.13;86.77;97402.72;5065459;28;20196;-70
2022/01/19 05:40:49;;;;;;;11.83;4.10;;;;;;;3.13;86.24;97391.44;5064777;28;20228;-70
2022/01/19 05:43:16;;;;;;;8.37;4.70;;;;;;;3.11;86.60;97394.16;5065166;28;20208;-70
2022/01/19 05:45:43;;;;;;;8.70;4.70;;;;;;;2.91;86.95;97386.03;5063772;28;20208;-69
2022/01/19 05:48:09;;;;;;;8.57;4.90;;;;;;;2.97;86.03;97383.03;5065339;28;20215;-70
2022/01/19 05:50:36;;;;;;;9.63;5.20;;;;;;;3.03;85.94;97380.00;5065055;28;20205;-70
2022/01/19 05:53:03;;;;;;;9.93;3.63;;;;;;;3.15;85.57;97376.56;5065288;28;20209;-70
2022/01/19 05:55:31;;;;;;;8.00;3.70;;;;;;;3.09;86.43;97379.56;5064405;28;20208;-70
2022/01/19 05:57:57;;;;;;;6.20;3.80;;;;;;;2.93;86.09;97383.31;5065968;28;20720;-69
2022/01/19 06:00:24;;;;;;;6.53;3.27;;;;;;;3.07;85.91;97381.47;5063882;28;20227;-70
2022/01/19 06:02:52;;;;;;;12.80;4.57;;;;;;;3.11;86.38;97375.13;5064112;28;20203;-70
2022/01/19 06:05:18;;;;;;;7.97;3.10;;;;;;;3.00;86.64;97364.56;5067909;28;20287;-70
2022/01/19 06:07:47;;;;;;;5.37;4.13;;;;;;;3.04;86.47;97371.25;5068054;28;20243;-69
2022/01/19 06:12:57;;;;;;;14.00;4.87;;;;;;;3.09;86.85;97366.56;5067974;28;20207;-70
2022/01/19 06:15:23;;;;;;;8.67;4.70;;;;;;;2.71;87.72;97370.94;5070110;28;20205;-70
2022/01/19 06:17:50;;;;;;;6.83;3.23;;;;;;;2.69;88.79;97359.78;5067072;28;20227;-70
2022/01/19 06:20:16;;;;;;;16.47;4.17;;;;;;;2.93;87.63;97363.34;5066567;28;20232;-70
2022/01/19 06:22:43;;;;;;;5.23;3.27;;;;;;;2.87;88.43;97363.75;5066855;28;20215;-69
2022/01/19 06:25:10;;;;;;;5.60;2.93;;;;;;;2.96;87.33;97357.09;5066894;28;20197;-70
2022/01/19 06:27:36;;;;;;;10.50;4.10;;;;;;;2.69;88.15;97351.16;5059227;28;20223;-70
2022/01/19 06:30:06;;;;;;;11.17;4.90;;;;;;;3.15;87.44;97343.53;5060346;28;20204;-70
2022/01/19 06:32:32;;;;;;;12.37;4.70;;;;;;;2.83;87.77;97349.28;5059333;28;20214;-69
2022/01/19 06:34:59;;;;;;;18.17;5.87;;;;;;;3.00;87.70;97348.97;5060107;28;20197;-70
2022/01/19 06:37:25;;;;;;;18.23;5.53;;;;;;;3.08;87.72;97333.63;5059139;28;20240;-70
2022/01/19 06:39:52;;;;;;;10.37;4.33;;;;;;;3.24;86.91;97339.47;5059828;28;20239;-70
2022/01/19 06:42:19;;;;;;;8.33;3.30;;;;;;;3.21;86.84;97342.28;5058982;28;20204;-70
2022/01/19 06:44:45;;;;;;;10.03;5.07;;;;;;;3.10;86.94;97336.97;5059450;28;20586;-70
2022/01/19 06:47:13;;;;;;;10.77;4.13;;;;;;;3.23;86.69;97340.41;5059905;28;20655;-70
2022/01/19 06:49:40;;;;;;;5.97;3.27;;;;;;;3.16;86.54;97337.38;5059943;28;20207;-70
2022/01/19 06:52:07;;;;;;;7.27;3.90;;;;;;;3.05;86.76;97336.47;5059228;28;20211;-70
2022/01/19 06:54:33;;;;;;;10.20;3.47;;;;;;;3.17;86.73;97335.59;5059018;28;20205;-70
2022/01/19 06:57:00;;;;;;;8.07;4.17;;;;;;;3.12;87.03;97329.91;5059472;28;20221;-70
2022/01/19 06:59:27;;;;;;;13.63;5.07;;;;;;;3.11;87.20;97321.25;5059240;28;20204;-70
2022/01/19 07:01:53;;;;;;;9.43;5.17;;;;;;;3.07;86.83;97314.59;5058899;28;20947;-70
2022/01/19 07:04:21;;;;;;;9.13;4.40;;;;;;;3.12;87.54;97306.47;5058606;28;20200;-70
2022/01/19 07:06:47;;;;;;;3.33;2.70;;;;;;;3.19;86.82;97303.31;5058714;28;20235;-70
2022/01/19 07:09:14;;;;;;;11.57;3.67;;;;;;;3.32;86.41;97296.34;5059220;28;20201;-70
2022/01/19 07:11:41;;;;;;;7.57;4.67;;;;;;;3.26;85.99;97295.91;5059014;28;20208;-70
2022/01/19 07:14:08;;;;;;;9.03;4.93;;;;;;;3.28;86.14;97297.47;5057961;28;20728;-70
2022/01/19 07:16:35;;;;;;;9.67;3.67;;;;;;;3.39;85.96;97288.91;5059080;28;20693;-70
2022/01/19 07:19:02;;;;;;;13.23;4.50;;;;;;;3.09;86.36;97284.09;5059000;28;20215;-70
2022/01/19 07:21:29;;;;;;;7.77;4.27;;;;;;;3.45;86.23;97289.31;5058712;28;20222;-70
2022/01/19 07:23:56;;;;;;;5.70;3.77;;;;;;;3.28;86.41;97291.44;5058409;28;20204;-70
2022/01/19 07:26:23;;;;;;;3.33;3.03;;;;;;;3.00;87.29;97291.69;5058347;28;20235;-70
2022/01/19 07:28:50;;;;;;;7.77;2.73;;;;;;;3.31;86.68;97275.56;5058173;28;20204;-70
2022/01/19 07:31:16;;;;;;;13.03;4.53;;;;;;;3.18;86.77;97287.81;5058473;28;20196;-70
2022/01/19 07:33:43;;;;;;;7.20;4.93;;;;;;;3.33;86.43;97281.53;5057920;28;20208;-70
2022/01/19 07:36:09;;;;;;;6.53;3.07;;;;;;;3.16;87.33;97281.88;5059385;28;20235;-70
2022/01/19 07:38:37;;;;;;;7.80;3.53;;;;;;;3.35;87.31;97277.06;5059137;28;20210;-70
2022/01/19 07:41:04;;;;;;;8.30;3.50;;;;;;;3.16;86.63;97272.28;5059255;28;20229;-70
2022/01/19 07:43:31;;;;;;;10.10;2.80;;;;;;;3.32;86.79;97274.66;5057634;28;20211;-70
2022/01/19 07:45:57;;;;;;;6.20;3.77;;;;;;;3.16;87.04;97281.88;5058920;28;20204;-70
2022/01/19 07:48:24;;;;;;;8.33;5.07;;;;;;;3.23;87.46;97278.75;5058742;28;20578;-70
2022/01/19 07:50:51;;;;;;;5.37;4.03;;;;;;;3.24;86.67;97283.00;5058101;28;20203;-70
2022/01/19 07:53:17;;;;;;;7.03;3.80;;;;;;;3.53;86.27;97278.34;5057212;28;20200;-70
2022/01/19 07:55:47;;;;;;;11.83;5.10;;;;;;;3.42;87.24;97283.47;5058446;28;20215;-71
2022/01/19 07:58:14;;;;;;;17.57;6.63;;;;;;;3.50;86.30;97286.38;5058890;28;20200;-70
2022/01/19 08:00:42;;;;;;;11.80;5.73;;;;;;;3.67;85.97;97281.63;5058134;28;20235;-70
2022/01/19 08:03:08;;;;;;;8.87;3.10;;;;;;;2.97;87.60;97289.31;5058250;28;20683;-70
2022/01/19 08:05:35;;;;;;;4.97;3.37;;;;;;;3.08;87.50;97295.44;5057930;28;20200;-70
2022/01/19 08:08:02;;;;;;;4.00;1.57;;;;;;;2.94;87.58;97283.47;5058168;28;20228;-70
2022/01/19 08:10:29;;;;;;;6.50;3.83;;;;;;;3.17;86.44;97279.16;5058051;28;20590;-70
2022/01/19 08:13:01;;;;;;;9.67;4.23;;;;;;;3.18;86.57;97283.44;5057906;28;20212;-70
2022/01/19 08:15:28;;;;;;;5.77;2.83;;;;;;;2.90;87.60;97284.63;5057593;28;20291;-70
2022/01/19 08:17:55;;;;;;;8.70;3.70;;;;;;;2.80;88.71;97291.38;5057715;28;20227;-70
2022/01/19 08:20:21;;;;;;;2.53;2.30;;;;;;;2.89;88.00;97286.41;5057398;28;20227;-69
2022/01/19 08:22:48;;;;;;;5.13;3.70;;;;;;;2.89;87.83;97278.59;5057311;28;20207;-70
2022/01/19 08:25:15;;;;;;;10.67;4.23;;;;;;;3.21;87.03;97266.78;5056836;28;21212;-70
2022/01/19 08:27:41;;;;;;;8.37;4.07;;;;;;;3.29;85.97;97267.06;5057783;28;20710;-70
2022/01/19 08:30:11;;;;;;;6.53;4.43;;;;;;;3.47;86.28;97257.94;5057487;28;20201;-70
2022/01/19 08:32:38;;;;;;;8.20;4.00;;;;;;;3.40;85.68;97264.50;5057012;28;20211;-70
2022/01/19 08:35:06;;;;;;;11.93;4.80;;;;;;;3.52;85.70;97263.66;5058321;28;20669;-70
2022/01/19 08:37:32;;;;;;;9.20;4.10;;;;;;;3.57;85.24;97267.59;5058037;28;20216;-69
2022/01/19 08:39:59;;;;;;;9.43;4.40;;;;;;;3.76;84.64;97258.31;5058578;28;20219;-70
2022/01/19 08:42:26;;;;;;;17.33;5.53;;;;;;;3.66;84.38;97262.53;5057276;28;20211;-71
2022/01/19 08:44:53;;;;;;;5.13;3.43;;;;;;;3.45;84.85;97262.41;5059399;28;20208;-70
2022/01/19 08:47:22;;;;;;;8.40;4.70;;;;;;;3.60;85.67;97256.13;5057213;28;20223;-69
2022/01/19 08:49:48;;;;;;;6.37;3.13;;;;;;;3.18;85.99;97254.78;5057615;28;20885;-70
2022/01/19 08:52:16;;;;;;;13.00;5.80;;;;;;;3.50;85.91;97244.69;5056402;28;20235;-70
2022/01/19 08:54:45;;;;;;;10.57;5.50;;;;;;;3.60;85.76;97243.09;5057535;28;20207;-70
2022/01/19 08:57:12;;;;;;;4.70;2.50;;;;;;;3.51;85.76;97241.13;5056702;28;20220;-70
2022/01/19 08:59:38;;;;;;;11.90;4.23;;;;;;;3.49;85.40;97243.00;5057642;28;20200;-70
2022/01/19 09:02:07;;;;;;;1.33;1.23;;;;;;;3.42;85.87;97244.41;5056466;28;21304;-70
2022/01/19 09:04:34;;;;;;;8.67;3.43;;;;;;;3.61;85.93;97234.31;5056755;28;20206;-70
2022/01/19 09:07:01;;;;;;;9.87;4.57;;;;;;;3.49;86.03;97245.63;5056478;28;20234;-70
2022/01/19 09:09:28;;;;;;;9.07;3.47;;;;;;;3.75;85.71;97238.41;5057109;28;20208;-70
2022/01/19 09:11:54;;;;;;;11.23;4.30;;;;;;;3.78;84.78;97246.03;5056673;28;20212;-70
2022/01/19 09:14:21;;;;;;;9.43;5.27;;;;;;;4.12;84.14;97245.19;5056918;28;20201;-71
2022/01/19 09:16:49;;;;;;;8.33;4.87;;;;;;;3.98;83.70;97242.78;5057279;28;20277;-70
2022/01/19 09:19:17;;;;;;;14.37;5.87;;;;;;;4.38;83.81;97238.88;5056712;28;20308;-70
2022/01/19 09:21:45;;;;;;;13.37;4.73;;;;;;;4.10;84.38;97246.25;5057161;28;20223;-70
2022/01/19 09:24:12;;;;;;;8.33;3.67;;;;;;;4.16;82.92;97241.41;5056982;28;20664;-70
2022/01/19 09:26:38;;;;;;;11.20;3.77;;;;;;;3.99;83.37;97236.63;5056534;28;20230;-70
2022/01/19 09:29:06;;;;;;;8.50;5.10;;;;;;;4.50;82.59;97235.34;5056858;28;20211;-70
2022/01/19 09:31:34;;;;;;;16.07;5.07;;;;;;;4.37;82.37;97234.59;5057796;28;20206;-70
2022/01/19 09:34:08;;;;;;;8.90;5.17;;;;;;;4.14;82.29;97234.66;5056358;28;20204;-70
2022/01/19 09:36:36;;;;;;;7.60;4.23;;;;;;;3.92;83.56;97226.75;5057116;28;20228;-70
2022/01/19 09:39:06;;;;;;;7.40;4.60;;;;;;;4.48;82.98;97229.38;5059437;28;20218;-70
2022/01/19 09:41:33;;;;;;;8.90;4.67;;;;;;;4.35;81.55;97228.66;5061200;28;20227;-70
2022/01/19 09:44:00;;;;;;;5.83;4.07;;;;;;;4.35;81.95;97228.66;5060138;28;20677;-70
2022/01/19 09:46:27;;;;;;;17.53;4.30;;;;;;;4.19;82.44;97225.56;5061462;28;20216;-70
2022/01/19 09:48:53;;;;;;;18.67;6.10;;;;;;;4.24;82.09;97220.81;5059771;28;20208;-70
2022/01/19 09:51:20;;;;;;;11.17;5.77;;;;;;;4.21;82.11;97234.06;5060721;28;20200;-70
2022/01/19 09:53:47;;;;;;;7.60;3.30;;;;;;;3.86;83.29;97224.63;5059989;28;20204;-70
2022/01/19 09:56:18;;;;;;;7.10;4.40;;;;;;;4.12;82.76;97229.53;5060929;28;20217;-70
2022/01/19 09:58:45;;;;;;;4.23;2.60;;;;;;;3.85;83.40;97221.16;5060450;28;20808;-70
2022/01/19 10:01:12;;;;;;;3.70;2.00;;;;;;;3.87;83.63;97218.44;5060427;28;20219;-70
2022/01/19 10:03:38;;;;;;;8.90;5.00;;;;;;;3.92;83.52;97214.56;5059228;28;20215;-70
2022/01/19 10:06:08;;;;;;;11.87;4.00;;;;;;;4.45;82.41;97208.75;5060158;28;20253;-70
2022/01/19 10:08:38;;;;;;;8.87;3.77;;;;;;;4.28;82.71;97209.22;5060037;28;20696;-70
2022/01/19 10:11:20;;;;;;;10.10;4.23;;;;;;;4.90;81.00;97209.50;5060394;28;20200;-69
2022/01/19 10:19:21;;;;;;;11.20;4.53;;;;;;;4.60;81.97;97210.22;5044856;28;20208;-70
2022/01/19 10:22:08;;;;;;;12.37;6.13;;;;;;;4.89;81.36;97207.84;5060544;28;20228;-70
2022/01/19 10:24:38;;;;;;;6.97;4.13;;;;;;;4.69;81.23;97204.28;5059942;28;20210;-70
2022/01/19 10:27:35;;;;;;;8.00;3.43;;;;;;;4.70;81.08;97201.53;5059838;28;20225;-70
2022/01/19 10:30:25;;;;;;;9.13;5.00;;;;;;;5.11;79.66;97179.06;5060767;28;20290;-70
2022/01/19 10:32:55;;;;;;;7.13;3.60;;;;;;;4.78;81.09;97182.69;5059543;28;20208;-70
2022/01/19 10:35:25;;;;;;;4.30;2.60;;;;;;;4.57;82.02;97176.50;5060448;28;20200;-70
2022/01/19 10:38:11;;;;;;;8.47;3.80;;;;;;;4.67;81.53;97169.63;5060323;28;20228;-70
2022/01/19 10:40:39;;;;;;;6.60;3.60;;;;;;;4.76;80.88;97174.13;5059687;28;20211;-70
2022/01/19 10:43:26;;;;;;;7.67;3.83;;;;;;;5.00;80.05;97160.81;5059927;28;20204;-70
2022/01/19 10:45:53;;;;;;;7.30;3.77;;;;;;;5.00;80.62;97154.75;5059789;28;20201;-70
2022/01/19 10:48:35;;;;;;;9.33;5.10;;;;;;;5.14;80.30;97159.72;5059618;28;20207;-70
2022/01/19 10:51:10;;;;;;;18.43;3.80;;;;;;;4.79;80.10;97163.47;5059992;28;21188;-70
2022/01/19 10:53:37;;;;;;;7.63;3.90;;;;;;;4.81;80.51;97156.31;5059266;28;20291;-70
2022/01/19 10:56:05;;;;;;;4.87;2.50;;;;;;;4.99;79.87;97150.47;5059474;28;20220;-70
2022/01/19 10:58:53;;;;;;;8.20;4.23;;;;;;;5.22;79.96;97147.72;5060311;28;20323;-70
2022/01/19 11:01:33;;;;;;;9.23;5.10;;;;;;;5.09;79.00;97131.38;5059264;28;20216;-70
2022/01/19 11:04:32;;;;;;;9.87;5.67;;;;;;;5.36;78.35;97134.38;5058457;28;20664;-70
2022/01/19 11:07:02;;;;;;;6.97;4.17;;;;;;;5.05;79.16;97129.94;5059542;28;20234;-69
2022/01/19 11:09:29;;;;;;;6.77;2.93;;;;;;;4.95;79.45;97121.19;5059247;28;20204;-69
2022/01/19 11:11:58;;;;;;;7.13;4.07;;;;;;;5.31;79.52;97128.69;5059407;28;20200;-70
2022/01/19 11:14:26;;;;;;;8.87;3.90;;;;;;;5.51;78.01;97120.03;5058176;28;20205;-70
2022/01/19 11:16:54;;;;;;;10.50;4.43;;;;;;;5.37;78.48;97107.25;5058995;28;20324;-70
2022/01/19 11:19:22;;;;;;;9.40;4.03;;;;;;;5.50;78.23;97105.34;5058785;28;20196;-70
2022/01/19 11:22:03;;;;;;;7.30;3.77;;;;;;;6.21;76.68;97093.16;5058592;28;20231;-70
2022/01/19 11:24:36;;;;;;;11.20;3.63;;;;;;;5.83;76.99;97092.09;5058377;28;20210;-70
2022/01/19 11:27:04;;;;;;;11.63;5.80;;;;;;;5.63;77.49;97087.69;5058110;28;20220;-70
2022/01/19 11:29:32;;;;;;;10.07;4.73;;;;;;;5.89;77.14;97086.38;5058441;28;20197;-69
2022/01/19 11:32:13;;;;;;;6.03;3.57;;;;;;;5.72;77.02;97084.31;5059060;28;20196;-70
2022/01/19 11:34:45;;;;;;;20.63;5.43;;;;;;;6.09;76.24;97070.66;5057741;28;20657;-70
2022/01/19 11:37:11;;;;;;;11.50;5.97;;;;;;;6.06;75.65;97070.94;5058199;28;20224;-69
2022/01/19 11:39:38;;;;;;;9.20;4.27;;;;;;;5.69;76.51;97061.00;5059023;28;20257;-70
2022/01/19 11:42:07;;;;;;;8.10;4.57;;;;;;;5.99;76.52;97055.88;5058366;28;20231;-70
2022/01/19 11:44:41;;;;;;;17.70;4.23;;;;;;;5.98;75.44;97048.97;5058599;28;20238;-70
2022/01/19 11:47:21;;;;;;;12.57;5.33;;;;;;;6.35;74.93;97030.84;5058140;28;20340;-69
2022/01/19 11:49:51;;;;;;;10.57;4.77;;;;;;;6.41;74.97;97032.91;5058862;28;20220;-69
2022/01/19 11:52:20;;;;;;;14.37;6.10;;;;;;;6.37;74.49;97015.81;5057244;28;20203;-70
2022/01/19 11:54:48;;;;;;;10.70;4.80;;;;;;;6.48;74.87;97017.50;5058835;28;20212;-70
2022/01/19 11:57:16;;;;;;;4.77;2.43;;;;;;;6.12;75.06;97016.28;5057851;28;20242;-69
2022/01/19 12:00:07;;;;;;;13.13;4.70;;;;;;;6.71;73.96;97014.56;5058298;28;20204;-70
2022/01/19 12:02:43;;;;;;;8.00;4.07;;;;;;;6.75;73.29;97010.69;5056762;28;20770;-70
2022/01/19 12:05:22;;;;;;;9.97;3.40;;;;;;;6.13;74.75;97006.66;5057525;28;20208;-70
2022/01/19 12:07:52;;;;;;;9.63;3.77;;;;;;;6.48;74.85;97002.66;5057662;28;20227;-69
2022/01/19 12:10:22;;;;;;;8.97;4.03;;;;;;;6.68;72.79;96999.09;5058441;28;20201;-70
2022/01/19 12:13:26;;;;;;;5.70;3.57;;;;;;;6.73;73.31;96992.50;5056979;28;20234;-69
2022/01/19 12:15:59;;;;;;;6.97;3.37;;;;;;;6.79;73.72;96985.88;5053231;28;20208;-69
2022/01/19 12:18:45;;;;;;;15.57;5.43;;;;;;;7.04;72.55;96980.09;5057651;28;20677;-69
2022/01/19 12:21:14;;;;;;;10.93;4.73;;;;;;;7.12;72.80;96978.47;5058306;28;20200;-69
2022/01/19 12:23:42;;;;;;;7.10;4.60;;;;;;;7.22;72.30;96975.81;5056707;28;20219;-70
2022/01/19 12:26:09;;;;;;;10.83;5.23;;;;;;;7.22;72.14;96974.03;5057719;28;20226;-70
2022/01/19 12:28:46;;;;;;;11.53;5.10;;;;;;;7.51;70.65;96965.19;5057228;28;20203;-69
2022/01/19 12:31:33;;;;;;;11.87;4.20;;;;;;;7.59;70.66;96960.06;5057353;28;20196;-70
2022/01/19 12:34:21;;;;;;;10.93;4.53;;;;;;;7.73;69.42;96954.38;5056854;28;20227;-70
2022/01/19 12:36:53;;;;;;;13.33;5.17;;;;;;;7.60;71.22;96953.84;5057474;28;20943;-70
2022/01/19 12:39:41;;;;;;;8.97;4.20;;;;;;;7.93;69.76;96948.91;5056955;28;20204;-70
2022/01/19 12:42:14;;;;;;;11.97;5.00;;;;;;;7.81;70.44;96930.84;5057065;28;20740;-69
2022/01/19 12:44:44;;;;;;;7.37;4.40;;;;;;;7.62;71.32;96935.34;5057037;28;20945;-69
2022/01/19 12:47:48;;;;;;;9.03;3.53;;;;;;;7.73;71.27;96922.88;5056566;28;20230;-70
2022/01/19 12:50:43;;;;;;;12.33;5.37;;;;;;;7.87;70.78;96920.59;5057931;28;20630;-69
2022/01/19 12:53:14;;;;;;;8.47;3.90;;;;;;;7.70;71.85;96920.56;5056396;28;20200;-70
2022/01/19 12:55:43;;;;;;;8.03;4.27;;;;;;;7.58;71.15;96920.84;5056957;28;20661;-70
2022/01/19 12:58:13;;;;;;;9.23;5.17;;;;;;;7.59;71.60;96920.72;5057972;28;20204;-70
2022/01/19 13:00:41;;;;;;;11.67;5.17;;;;;;;7.53;71.03;96916.03;5057644;28;20207;-70
2022/01/19 13:03:20;;;;;;;12.23;4.27;;;;;;;7.44;70.59;96923.94;5056277;28;20232;-70